createdAt,value
2023-04-01T00:00:53.468Z,96.40
2023-04-01T00:03:20.662Z,96.40
2023-04-01T00:05:47.515Z,96.70
2023-04-01T00:08:14.200Z,96.60
2023-04-01T00:10:41.026Z,96.40
2023-04-01T00:13:07.939Z,96.40
2023-04-01T00:15:34.681Z,96.50
2023-04-01T00:18:01.860Z,96.40
2023-04-01T00:20:28.882Z,96.50
2023-04-01T00:22:55.913Z,96.50
2023-04-01T00:25:22.689Z,96.40
2023-04-01T00:27:50.191Z,96.60
2023-04-01T00:30:17.151Z,96.60
2023-04-01T00:32:43.751Z,96.50
2023-04-01T00:35:11.120Z,96.50
2023-04-01T00:37:37.889Z,96.70
2023-04-01T00:40:06.130Z,96.40
2023-04-01T00:42:32.752Z,96.50
2023-04-01T00:44:59.688Z,96.50
2023-04-01T00:47:27.532Z,96.20
2023-04-01T00:49:54.908Z,95.90
2023-04-01T00:52:23.594Z,96.00
2023-04-01T00:54:52.738Z,96.10
2023-04-01T00:57:19.228Z,95.80
2023-04-01T00:59:50.721Z,95.80
2023-04-01T01:02:18.287Z,95.90
2023-04-01T01:04:45.197Z,96.10
2023-04-01T01:07:30.557Z,96.10
2023-04-01T01:10:13.120Z,95.90
2023-04-01T01:12:42.107Z,96.10
2023-04-01T01:15:11.803Z,96.10
2023-04-01T01:18:01.015Z,96.30
2023-04-01T01:20:46.225Z,96.40
2023-04-01T01:23:12.655Z,96.70
2023-04-01T01:25:53.683Z,96.90
2023-04-01T01:28:38.873Z,97.20
2023-04-01T01:31:22.027Z,97.40
2023-04-01T01:33:52.047Z,97.40
2023-04-01T01:36:19.844Z,97.30
2023-04-01T01:38:46.983Z,97.20
2023-04-01T01:41:14.758Z,97.30
2023-04-01T01:43:42.889Z,97.40
2023-04-01T01:46:12.250Z,97.30
2023-04-01T01:48:39.597Z,97.30
2023-04-01T01:51:06.431Z,97.30
2023-04-01T01:53:32.902Z,97.20
2023-04-01T01:55:59.358Z,97.00
2023-04-01T01:58:28.670Z,97.00
2023-04-01T02:00:59.758Z,96.70
2023-04-01T02:03:27.695Z,96.80
2023-04-01T02:05:55.946Z,96.90
2023-04-01T02:08:25.554Z,96.60
2023-04-01T02:10:56.805Z,96.40
2023-04-01T02:13:28.275Z,96.40
2023-04-01T02:15:56.397Z,96.20
2023-04-01T02:18:23.087Z,96.10
2023-04-01T02:20:50.103Z,96.10
2023-04-01T02:23:16.720Z,95.70
2023-04-01T02:25:44.457Z,95.60
2023-04-01T02:28:11.521Z,95.70
2023-04-01T02:30:40.026Z,95.80
2023-04-01T02:33:07.108Z,95.50
2023-04-01T02:35:35.504Z,95.50
2023-04-01T02:38:02.127Z,95.30
2023-04-01T02:40:28.627Z,95.20
2023-04-01T02:42:55.086Z,95.30
2023-04-01T02:45:21.675Z,95.30
2023-04-01T02:47:48.232Z,95.40
2023-04-01T02:50:14.788Z,95.50
2023-04-01T02:52:41.278Z,96.20
2023-04-01T02:55:08.001Z,96.10
2023-04-01T02:57:34.536Z,95.90
2023-04-01T03:00:01.120Z,95.80
2023-04-01T03:02:27.996Z,96.10
2023-04-01T03:04:54.529Z,96.10
2023-04-01T03:07:21.116Z,96.00
2023-04-01T03:09:47.570Z,95.80
2023-04-01T03:12:14.044Z,95.60
2023-04-01T03:14:40.675Z,95.40
2023-04-01T03:17:07.577Z,95.60
2023-04-01T03:19:34.065Z,95.60
2023-04-01T03:22:00.519Z,95.50
2023-04-01T03:24:26.997Z,95.40
2023-04-01T03:26:53.529Z,95.60
2023-04-01T03:29:20.289Z,95.60
2023-04-01T03:31:46.827Z,95.60
2023-04-01T03:34:13.309Z,95.60
2023-04-01T03:36:39.779Z,95.70
2023-04-01T03:39:06.606Z,95.70
2023-04-01T03:41:33.430Z,95.80
2023-04-01T03:43:59.889Z,95.80
2023-04-01T03:46:26.468Z,95.80
2023-04-01T03:48:52.988Z,95.70
2023-04-01T03:51:19.535Z,95.40
2023-04-01T03:53:46.208Z,95.40
2023-04-01T03:56:12.768Z,95.40
2023-04-01T03:58:40.026Z,95.20
2023-04-01T04:01:21.556Z,95.10
2023-04-01T04:03:50.097Z,95.00
2023-04-01T04:06:18.504Z,95.00
2023-04-01T04:08:45.321Z,95.50
2023-04-01T04:11:12.122Z,95.80
2023-04-01T04:13:38.749Z,95.40
2023-04-01T04:16:05.757Z,95.20
2023-04-01T04:18:32.251Z,95.00
2023-04-01T04:20:58.842Z,94.70
2023-04-01T04:23:25.378Z,94.70
2023-04-01T04:25:58.885Z,94.90
2023-04-01T04:28:25.621Z,94.50
2023-04-01T04:30:52.162Z,94.40
2023-04-01T04:33:18.972Z,94.30
2023-04-01T04:35:45.493Z,94.40
2023-04-01T04:38:12.107Z,95.40
2023-04-01T04:40:39.555Z,96.10
2023-04-01T04:43:06.058Z,96.60
2023-04-01T04:45:32.667Z,96.90
2023-04-01T04:47:59.402Z,96.60
2023-04-01T04:50:26.345Z,96.50
2023-04-01T04:52:52.845Z,96.70
2023-04-01T04:55:19.378Z,96.70
2023-04-01T04:57:45.853Z,97.00
2023-04-01T05:00:12.680Z,96.90
2023-04-01T05:02:39.255Z,97.10
2023-04-01T05:05:06.266Z,97.40
2023-04-01T05:07:33.693Z,97.50
2023-04-01T05:10:00.311Z,97.50
2023-04-01T05:12:26.819Z,97.40
2023-04-01T05:14:53.278Z,97.60
2023-04-01T05:17:19.818Z,97.40
2023-04-01T05:19:46.359Z,97.80
2023-04-01T05:22:12.851Z,98.20
2023-04-01T05:24:39.310Z,98.30
2023-04-01T05:27:05.751Z,98.50
2023-04-01T05:29:32.257Z,98.60
2023-04-01T05:31:58.701Z,98.40
2023-04-01T05:34:25.320Z,98.50
2023-04-01T05:36:53.019Z,98.80
2023-04-01T05:39:19.484Z,99.40
2023-04-01T05:41:46.102Z,99.50
2023-04-01T05:44:13.213Z,99.70
2023-04-01T05:46:39.729Z,99.80
2023-04-01T05:49:06.235Z,99.90
2023-04-01T05:51:32.709Z,99.80
2023-04-01T05:53:59.206Z,99.40
2023-04-01T05:56:25.744Z,99.20
2023-04-01T05:58:53.860Z,99.10
2023-04-01T06:01:20.570Z,99.20
2023-04-01T06:03:47.167Z,99.10
2023-04-01T06:06:23.590Z,99.30
2023-04-01T06:08:50.212Z,99.30
2023-04-01T06:11:23.961Z,99.40
2023-04-01T06:13:59.948Z,99.40
2023-04-01T06:16:26.429Z,98.80
2023-04-01T06:19:12.013Z,98.10
2023-04-01T06:21:47.729Z,97.60
2023-04-01T06:24:20.566Z,97.80
2023-04-01T06:27:08.713Z,98.10
2023-04-01T06:29:53.980Z,98.20
2023-04-01T06:32:28.113Z,98.00
2023-04-01T06:35:15.037Z,98.10
2023-04-01T06:37:41.489Z,97.60
2023-04-01T06:40:07.961Z,97.10
2023-04-01T06:42:39.550Z,96.00
2023-04-01T06:45:21.467Z,95.40
2023-04-01T06:48:11.274Z,95.20
2023-04-01T06:50:43.248Z,95.30
2023-04-01T06:53:22.317Z,94.80
2023-04-01T06:55:51.879Z,94.70
2023-04-01T06:58:22.683Z,94.40
2023-04-01T07:00:51.005Z,94.40
2023-04-01T07:03:17.550Z,93.80
2023-04-01T07:05:44.930Z,93.50
2023-04-01T07:08:14.274Z,93.60
2023-04-01T07:10:59.672Z,93.60
2023-04-01T07:13:29.573Z,93.80
2023-04-01T07:16:00.568Z,93.50
2023-04-01T07:18:31.178Z,93.70
2023-04-01T07:20:58.370Z,93.80
2023-04-01T07:23:30.406Z,94.60
2023-04-01T07:26:00.715Z,94.80
2023-04-01T07:28:30.627Z,95.60
2023-04-01T07:31:16.615Z,96.40
2023-04-01T07:33:49.288Z,97.30
2023-04-01T07:36:20.266Z,97.60
2023-04-01T07:38:59.026Z,97.40
2023-04-01T07:41:38.611Z,97.40
2023-04-01T07:44:07.789Z,97.50
2023-04-01T07:46:43.500Z,97.60
2023-04-01T07:49:10.404Z,97.80
2023-04-01T07:51:52.223Z,97.90
2023-04-01T07:54:23.405Z,98.00
2023-04-01T07:56:59.905Z,98.00
2023-04-01T07:59:44.969Z,98.00
2023-04-01T08:02:21.501Z,98.20
2023-04-01T08:05:11.132Z,98.20
2023-04-01T08:08:04.796Z,98.30
2023-04-01T08:10:37.180Z,98.50
2023-04-01T08:13:26.754Z,98.80
2023-04-01T08:16:16.617Z,99.10
2023-04-01T08:18:52.135Z,99.40
2023-04-01T08:21:24.421Z,99.50
2023-04-01T08:23:53.015Z,99.80
2023-04-01T08:26:25.727Z,99.90
2023-04-01T08:28:55.241Z,99.70
2023-04-01T08:31:39.231Z,99.80
2023-04-01T08:34:11.117Z,99.80
2023-04-01T08:36:43.514Z,99.30
2023-04-01T08:39:11.568Z,99.90
2023-04-01T08:41:43.510Z,99.90
2023-04-01T08:44:12.903Z,99.90
2023-04-01T08:46:49.440Z,99.90
2023-04-01T08:49:32.308Z,99.90
2023-04-01T08:52:19.046Z,99.90
2023-04-01T08:54:45.690Z,99.90
2023-04-01T08:57:48.721Z,99.90
2023-04-01T09:00:19.554Z,99.90
2023-04-01T09:02:59.952Z,99.90
2023-04-01T09:05:37.402Z,99.90
2023-04-01T09:08:09.079Z,99.90
2023-04-01T09:10:44.678Z,99.90
2023-04-01T09:13:30.014Z,99.90
2023-04-01T09:15:59.613Z,99.90
2023-04-01T09:18:43.949Z,99.90
2023-04-01T09:21:10.905Z,99.90
2023-04-01T09:23:43.619Z,99.90
2023-04-01T09:26:29.078Z,99.90
2023-04-01T09:28:55.709Z,99.90
2023-04-01T09:31:25.177Z,99.90
2023-04-01T09:34:10.715Z,99.90
2023-04-01T09:36:49.502Z,99.90
2023-04-01T09:39:37.423Z,99.90
2023-04-01T09:42:03.874Z,99.90
2023-04-01T09:44:33.447Z,99.90
2023-04-01T09:47:06.854Z,99.90
2023-04-01T09:49:33.298Z,99.90
2023-04-01T09:52:08.962Z,99.90
2023-04-01T09:54:41.520Z,99.90
2023-04-01T09:57:32.015Z,99.40
2023-04-01T10:00:10.364Z,99.70
2023-04-01T10:03:01.662Z,99.10
2023-04-01T10:05:44.757Z,98.90
2023-04-01T10:08:27.812Z,98.00
2023-04-01T10:10:57.354Z,97.70
2023-04-01T10:13:45.513Z,97.90
2023-04-01T10:16:20.661Z,98.50
2023-04-01T10:18:52.233Z,99.00
2023-04-01T10:21:43.845Z,98.90
2023-04-01T10:24:25.163Z,98.50
2023-04-01T10:26:56.628Z,98.00
2023-04-01T10:29:28.636Z,98.00
2023-04-01T10:32:31.536Z,97.70
2023-04-01T10:35:12.118Z,97.40
2023-04-01T10:37:55.335Z,96.90
2023-04-01T10:40:26.310Z,96.60
2023-04-01T10:43:11.742Z,96.00
2023-04-01T10:45:58.691Z,96.60
2023-04-01T10:48:48.976Z,97.30
2023-04-01T10:51:39.565Z,97.00
2023-04-01T10:54:18.506Z,97.20
2023-04-01T10:56:47.871Z,96.80
2023-04-01T10:59:17.512Z,96.20
2023-04-01T11:01:47.974Z,96.10
2023-04-01T11:04:31.873Z,95.50
2023-04-01T11:07:13.707Z,95.50
2023-04-01T11:09:40.184Z,95.30
2023-04-01T11:12:06.651Z,95.10
2023-04-01T11:14:51.804Z,94.80
2023-04-01T11:17:34.302Z,94.00
2023-04-01T11:20:06.867Z,94.40
2023-04-01T11:22:52.269Z,93.10
2023-04-01T11:25:43.606Z,93.50
2023-04-01T11:28:21.331Z,93.80
2023-04-01T11:31:00.343Z,95.00
2023-04-01T11:33:27.014Z,95.50
2023-04-01T11:35:57.485Z,95.50
2023-04-01T11:38:31.995Z,96.40
2023-04-01T11:41:03.706Z,96.60
2023-04-01T11:43:48.809Z,95.70
2023-04-01T11:46:24.128Z,95.90
2023-04-01T11:48:51.734Z,95.40
2023-04-01T11:51:28.821Z,95.40
2023-04-01T11:53:55.358Z,95.90
2023-04-01T11:56:33.503Z,95.90
2023-04-01T11:59:24.144Z,95.40
2023-04-01T12:01:56.468Z,95.30
2023-04-01T12:04:41.631Z,95.00
2023-04-01T12:07:33.895Z,94.60
2023-04-01T12:10:04.602Z,94.30
2023-04-01T12:12:50.723Z,95.00
2023-04-01T12:15:30.216Z,94.60
2023-04-01T12:18:10.114Z,94.30
2023-04-01T12:20:44.462Z,94.10
2023-04-01T12:23:29.740Z,93.10
2023-04-01T12:26:05.486Z,93.70
2023-04-01T12:28:44.647Z,93.60
2023-04-01T12:31:20.272Z,94.70
2023-04-01T12:34:05.549Z,95.40
2023-04-01T12:36:53.859Z,95.80
2023-04-01T12:39:34.210Z,95.80
2023-04-01T12:42:07.895Z,95.50
2023-04-01T12:44:42.807Z,94.50
2023-04-01T12:47:17.277Z,94.30
2023-04-01T12:49:53.127Z,94.50
2023-04-01T12:52:22.607Z,93.40
2023-04-01T12:55:10.897Z,92.10
2023-04-01T12:57:52.196Z,92.50
2023-04-01T13:00:28.121Z,91.90
2023-04-01T13:03:11.073Z,91.60
2023-04-01T13:05:56.074Z,91.70
2023-04-01T13:08:22.580Z,91.60
2023-04-01T13:10:55.074Z,91.20
2023-04-01T13:13:24.652Z,90.40
2023-04-01T13:16:20.668Z,91.00
2023-04-01T13:19:02.406Z,90.80
2023-04-01T13:21:28.851Z,90.50
2023-04-01T13:24:13.594Z,90.00
2023-04-01T13:26:40.045Z,90.00
2023-04-01T13:29:12.622Z,90.70
2023-04-01T13:31:47.114Z,90.40
2023-04-01T13:34:22.516Z,90.20
2023-04-01T13:36:55.339Z,88.60
2023-04-01T13:39:24.878Z,89.30
2023-04-01T13:42:00.097Z,89.70
2023-04-01T13:44:38.206Z,88.90
2023-04-01T13:47:09.686Z,90.20
2023-04-01T13:50:02.545Z,90.00
2023-04-01T13:52:28.992Z,90.20
2023-04-01T13:55:07.719Z,90.00
2023-04-01T13:57:39.154Z,90.40
2023-04-01T14:00:14.421Z,90.20
2023-04-01T14:02:47.871Z,90.30
2023-04-01T14:05:43.098Z,90.60
2023-04-01T14:08:30.558Z,90.10
2023-04-01T14:11:08.494Z,90.20
2023-04-01T14:13:53.834Z,90.50
2023-04-01T14:16:39.212Z,90.60
2023-04-01T14:19:26.828Z,90.80
2023-04-01T14:22:12.245Z,90.50
2023-04-01T14:24:41.838Z,90.60
2023-04-01T14:27:09.885Z,91.10
2023-04-01T14:29:47.943Z,92.60
2023-04-01T14:32:14.491Z,93.10
2023-04-01T14:34:56.368Z,93.70
2023-04-01T14:37:41.181Z,94.60
2023-04-01T14:40:16.799Z,95.80
2023-04-01T14:42:55.814Z,97.10
2023-04-01T14:45:40.788Z,99.30
2023-04-01T14:48:16.588Z,99.90
2023-04-01T14:50:45.607Z,99.90
2023-04-01T14:53:13.806Z,99.90
2023-04-01T14:55:43.398Z,99.90
2023-04-01T14:58:11.642Z,99.90
2023-04-01T15:01:01.295Z,99.90
2023-04-01T15:03:33.541Z,99.90
2023-04-01T15:06:00.005Z,99.90
2023-04-01T15:08:45.395Z,99.90
2023-04-01T15:11:14.610Z,99.90
2023-04-01T15:13:45.532Z,99.90
2023-04-01T15:16:30.799Z,99.90
2023-04-01T15:18:57.230Z,99.90
2023-04-01T15:21:23.667Z,99.90
2023-04-01T15:23:54.508Z,99.90
2023-04-01T15:26:34.105Z,99.90
2023-04-01T15:29:15.885Z,99.90
2023-04-01T15:31:51.130Z,99.90
2023-04-01T15:34:22.268Z,99.90
2023-04-01T15:36:54.297Z,99.90
2023-04-01T15:39:39.038Z,99.90
2023-04-01T15:42:27.760Z,99.90
2023-04-01T15:44:54.287Z,99.90
2023-04-01T15:47:26.708Z,99.90
2023-04-01T15:49:57.109Z,99.90
2023-04-01T15:52:36.020Z,99.90
2023-04-01T15:55:18.045Z,99.80
2023-04-01T15:58:03.378Z,99.00
2023-04-01T16:00:42.547Z,98.70
2023-04-01T16:03:13.999Z,99.80
2023-04-01T16:05:59.987Z,99.20
2023-04-01T16:08:27.012Z,99.30
2023-04-01T16:11:04.118Z,99.40
2023-04-01T16:13:43.795Z,98.70
2023-04-01T16:16:28.754Z,99.00
2023-04-01T16:19:12.514Z,99.10
2023-04-01T16:21:45.089Z,98.30
2023-04-01T16:24:14.657Z,98.60
2023-04-01T16:26:48.989Z,97.50
2023-04-01T16:29:15.768Z,98.10
2023-04-01T16:31:45.322Z,98.50
2023-04-01T16:34:18.104Z,98.90
2023-04-01T16:36:48.453Z,98.90
2023-04-01T16:39:20.822Z,98.20
2023-04-01T16:41:53.228Z,98.30
2023-04-01T16:44:20.270Z,98.70
2023-04-01T16:47:07.020Z,99.00
2023-04-01T16:49:47.504Z,98.50
2023-04-01T16:52:15.826Z,98.60
2023-04-01T16:54:51.465Z,99.10
2023-04-01T16:57:28.896Z,99.20
2023-04-01T16:59:59.798Z,99.10
2023-04-01T17:02:29.139Z,99.20
2023-04-01T17:04:59.872Z,99.50
2023-04-01T17:07:29.421Z,99.30
2023-04-01T17:10:05.374Z,98.90
2023-04-01T17:12:36.361Z,99.20
2023-04-01T17:15:13.317Z,99.70
2023-04-01T17:17:46.511Z,99.80
2023-04-01T17:20:13.625Z,99.40
2023-04-01T17:22:59.884Z,99.50
2023-04-01T17:25:44.940Z,99.40
2023-04-01T17:28:11.472Z,99.10
2023-04-01T17:30:50.630Z,99.50
2023-04-01T17:33:23.872Z,99.90
2023-04-01T17:36:09.462Z,99.90
2023-04-01T17:38:54.789Z,99.20
2023-04-01T17:41:21.241Z,99.40
2023-04-01T17:43:53.581Z,99.80
2023-04-01T17:46:23.072Z,99.80
2023-04-01T17:49:01.518Z,99.90
2023-04-01T17:51:41.215Z,99.90
2023-04-01T17:54:07.655Z,99.90
2023-04-01T17:56:34.131Z,99.90
2023-04-01T17:59:19.653Z,99.90
2023-04-01T18:01:55.296Z,99.90
2023-04-01T18:04:40.626Z,99.90
2023-04-01T18:07:39.642Z,99.90
2023-04-01T18:10:12.296Z,99.90
2023-04-01T18:12:44.554Z,99.90
2023-04-01T18:15:20.373Z,99.90
2023-04-01T18:17:51.725Z,99.90
2023-04-01T18:20:40.651Z,99.90
2023-04-01T18:23:07.066Z,99.90
2023-04-01T18:25:37.649Z,99.90
2023-04-01T18:28:18.228Z,99.90
2023-04-01T18:30:45.277Z,99.90
2023-04-01T18:33:32.699Z,99.90
2023-04-01T18:36:06.715Z,99.90
2023-04-01T18:38:35.328Z,99.90
2023-04-01T18:41:15.677Z,99.90
2023-04-01T18:44:02.132Z,99.90
2023-04-01T18:46:28.593Z,99.90
2023-04-01T18:49:08.316Z,99.90
2023-04-01T18:51:46.811Z,99.90
2023-04-01T18:54:33.417Z,99.90
2023-04-01T18:57:02.316Z,99.90
2023-04-01T18:59:35.478Z,99.90
2023-04-01T19:02:21.649Z,99.90
2023-04-01T19:04:53.658Z,99.90
2023-04-01T19:07:29.186Z,99.90
2023-04-01T19:10:01.217Z,99.90
2023-04-01T19:12:33.820Z,99.90
2023-04-01T19:15:10.322Z,99.90
2023-04-01T19:17:42.809Z,99.90
2023-04-01T19:20:29.186Z,99.90
2023-04-01T19:23:15.878Z,99.90
2023-04-01T19:26:20.136Z,99.90
2023-04-01T19:28:52.923Z,99.90
2023-04-01T19:31:22.190Z,99.90
2023-04-01T19:34:18.255Z,99.90
2023-04-01T19:36:49.858Z,99.90
2023-04-01T19:39:40.300Z,99.90
2023-04-01T19:42:26.090Z,99.90
2023-04-01T19:45:01.147Z,99.90
2023-04-01T19:47:36.813Z,99.90
2023-04-01T19:50:17.873Z,99.90
2023-04-01T19:52:48.692Z,99.90
2023-04-01T19:55:36.553Z,99.90
2023-04-01T19:58:05.373Z,99.90
2023-04-01T20:00:39.114Z,99.90
2023-04-01T20:03:14.506Z,99.90
2023-04-01T20:05:58.733Z,99.90
2023-04-01T20:08:31.115Z,99.90
2023-04-01T20:11:03.168Z,99.90
2023-04-01T20:13:34.718Z,99.90
2023-04-01T20:16:11.824Z,99.90
2023-04-01T20:18:44.926Z,99.90
2023-04-01T20:21:28.751Z,99.90
2023-04-01T20:24:17.683Z,99.90
2023-04-01T20:26:49.426Z,99.90
2023-04-01T20:29:22.617Z,99.90
2023-04-01T20:32:14.607Z,99.90
2023-04-01T20:34:55.574Z,99.90
2023-04-01T20:37:35.626Z,99.90
2023-04-01T20:40:21.025Z,99.90
2023-04-01T20:42:50.369Z,99.90
2023-04-01T20:45:36.338Z,99.90
2023-04-01T20:48:08.970Z,99.90
2023-04-01T20:50:35.409Z,99.90
2023-04-01T20:53:21.086Z,99.90
2023-04-01T20:55:47.548Z,99.90
2023-04-01T20:58:34.278Z,99.90
2023-04-01T21:01:16.528Z,99.90
2023-04-01T21:03:49.950Z,99.90
2023-04-01T21:06:28.958Z,99.90
2023-04-01T21:09:04.129Z,99.90
2023-04-01T21:11:39.583Z,99.90
2023-04-01T21:14:06.019Z,99.90
2023-04-01T21:16:32.598Z,99.90
2023-04-01T21:19:13.125Z,99.90
2023-04-01T21:21:57.896Z,99.90
2023-04-01T21:24:35.439Z,99.90
2023-04-01T21:27:23.615Z,99.90
2023-04-01T21:29:56.614Z,99.90
2023-04-01T21:32:24.812Z,99.90
2023-04-01T21:34:52.883Z,99.90
2023-04-01T21:37:28.713Z,99.80
2023-04-01T21:40:18.431Z,99.80
2023-04-01T21:43:06.928Z,99.80
2023-04-01T21:45:33.942Z,99.90
2023-04-01T21:48:00.645Z,99.80
2023-04-01T21:50:36.009Z,99.80
2023-04-01T21:53:21.223Z,99.70
2023-04-01T21:56:07.579Z,99.70
2023-04-01T21:58:52.586Z,99.90
2023-04-01T22:01:25.161Z,99.90
2023-04-01T22:03:57.182Z,99.90
2023-04-01T22:06:29.077Z,99.90
2023-04-01T22:09:07.781Z,99.90
2023-04-01T22:11:54.397Z,99.30
2023-04-01T22:14:27.252Z,99.60
2023-04-01T22:17:04.330Z,98.90
2023-04-01T22:19:56.307Z,98.20
2023-04-01T22:22:25.181Z,99.10
2023-04-01T22:24:51.669Z,99.00
2023-04-01T22:27:37.170Z,98.90
2023-04-01T22:30:07.487Z,98.30
2023-04-01T22:32:39.909Z,98.40
2023-04-01T22:35:21.707Z,98.50
2023-04-01T22:37:51.478Z,98.70
2023-04-01T22:40:36.605Z,98.30
2023-04-01T22:43:07.130Z,98.50
2023-04-01T22:45:52.473Z,97.90
2023-04-01T22:48:29.157Z,98.10
2023-04-01T22:51:01.849Z,98.10
2023-04-01T22:53:40.199Z,99.00
2023-04-01T22:56:10.583Z,98.60
2023-04-01T22:58:39.724Z,98.40
2023-04-01T23:01:08.485Z,98.40
2023-04-01T23:03:41.302Z,98.30
2023-04-01T23:06:13.043Z,98.20
2023-04-01T23:09:02.147Z,98.50
2023-04-01T23:11:30.936Z,98.40
2023-04-01T23:13:57.355Z,98.20
2023-04-01T23:16:27.215Z,98.50
2023-04-01T23:18:56.558Z,98.50
2023-04-01T23:21:40.227Z,98.90
2023-04-01T23:24:27.517Z,99.10
2023-04-01T23:27:16.865Z,98.90
2023-04-01T23:29:43.800Z,99.20
2023-04-01T23:32:17.934Z,99.20
2023-04-01T23:34:52.008Z,99.70
2023-04-01T23:37:20.117Z,99.50
2023-04-01T23:39:48.177Z,99.70
2023-04-01T23:42:20.751Z,99.60
2023-04-01T23:44:49.164Z,99.50
2023-04-01T23:47:23.197Z,99.60
2023-04-01T23:49:52.470Z,99.70
2023-04-01T23:52:27.085Z,99.70
2023-04-01T23:54:56.039Z,99.90
2023-04-01T23:57:23.827Z,99.80
